Time;durP1;ratioP1;P1;durP2;ratioP2;P2;SDS_P1;SDS_P2;PMS_P1;PMS_P2;Temp;Humidity;BMP_temperature;BMP_pressure;BME280_temperature;BME280_humidity;BME280_pressure;Samples;Min_cycle;Max_cycle;Signal;HPM_P1;HPM_P2
2020/12/10 00:00:31;;;;;;;32.43;15.27;;;2.00;83.00;;;;;;5093326;28;20028;-84
2020/12/10 00:02:57;;;;;;;28.37;14.73;;;2.10;83.20;;;;;;5075338;28;20031;-84
2020/12/10 00:05:22;;;;;;;33.17;15.80;;;2.10;83.30;;;;;;5075462;28;20024;-84
2020/12/10 00:07:48;;;;;;;28.77;14.70;;;2.10;83.00;;;;;;5074069;28;20210;-84
2020/12/10 00:10:14;;;;;;;28.50;14.17;;;2.10;82.80;;;;;;5093058;28;20472;-84
2020/12/10 00:12:42;;;;;;;31.47;15.13;;;2.10;82.80;;;;;;5091669;28;20028;-84
2020/12/10 00:15:08;;;;;;;31.23;14.87;;;2.10;82.80;;;;;;5075183;28;20127;-85
2020/12/10 00:17:34;;;;;;;30.90;15.37;;;2.20;82.70;;;;;;5093088;28;20028;-84
2020/12/10 00:20:00;;;;;;;29.33;14.90;;;2.10;82.50;;;;;;5074520;28;20032;-84
2020/12/10 00:22:26;;;;;;;30.70;15.47;;;2.10;82.70;;;;;;5074421;28;20063;-85
2020/12/10 00:24:52;;;;;;;28.90;14.03;;;2.10;83.00;;;;;;5074533;28;20028;-85
2020/12/10 00:27:22;;;;;;;29.37;14.90;;;2.10;83.00;;;;;;5092700;28;20032;-84
2020/12/10 00:29:48;;;;;;;28.00;14.70;;;2.10;82.90;;;;;;5074348;28;20028;-85
2020/12/10 00:32:14;;;;;;;28.67;14.80;;;2.00;82.90;;;;;;5073882;28;20039;-83
2020/12/10 00:34:42;;;;;;;29.10;14.23;;;2.10;83.00;;;;;;5074100;28;20035;-84
2020/12/10 00:37:08;;;;;;;27.33;14.67;;;2.00;82.90;;;;;;5073555;28;20115;-84
2020/12/10 00:39:35;;;;;;;29.43;14.10;;;2.00;83.00;;;;;;5073843;28;20056;-84
2020/12/10 00:42:02;;;;;;;29.40;14.53;;;2.10;83.20;;;;;;5074133;28;20400;-84
2020/12/10 00:44:28;;;;;;;27.43;14.23;;;2.10;83.00;;;;;;5092428;28;20032;-85
2020/12/10 00:46:53;;;;;;;28.93;14.50;;;2.00;82.70;;;;;;5092401;28;20039;-84
2020/12/10 00:49:21;;;;;;;28.20;15.27;;;2.10;83.30;;;;;;5091963;28;20103;-85
2020/12/10 00:51:47;;;;;;;27.13;13.53;;;2.10;82.90;;;;;;5092559;28;20020;-85
2020/12/10 00:54:13;;;;;;;28.07;14.43;;;2.10;82.90;;;;;;5073198;28;20028;-85
2020/12/10 00:56:39;;;;;;;28.50;14.57;;;2.00;83.20;;;;;;5073951;28;20024;-85
2020/12/10 00:59:04;;;;;;;27.03;13.73;;;2.00;83.20;;;;;;5073674;28;20392;-85
2020/12/10 01:01:30;;;;;;;28.17;14.63;;;2.00;82.90;;;;;;5073741;28;20127;-84
2020/12/10 01:03:56;;;;;;;28.77;13.77;;;2.00;82.70;;;;;;5073478;28;20073;-85
2020/12/10 01:06:22;;;;;;;27.70;14.93;;;2.10;83.00;;;;;;5092196;28;20107;-84
2020/12/10 01:08:48;;;;;;;29.47;13.73;;;2.10;82.90;;;;;;5073151;28;20027;-84
2020/12/10 01:11:13;;;;;;;27.90;13.10;;;2.00;82.90;;;;;;5073876;28;20384;-84
2020/12/10 01:13:39;;;;;;;25.60;13.23;;;2.00;83.00;;;;;;5073240;28;20071;-84
2020/12/10 01:16:05;;;;;;;25.57;13.77;;;2.10;82.90;;;;;;5073716;28;20052;-85
2020/12/10 01:18:30;;;;;;;27.03;13.50;;;2.10;82.70;;;;;;5092257;28;20492;-84
2020/12/10 01:20:56;;;;;;;27.83;14.00;;;2.10;82.70;;;;;;5092103;28;20520;-84
2020/12/10 01:23:22;;;;;;;29.37;13.73;;;2.10;82.50;;;;;;5073058;28;20113;-84
2020/12/10 01:25:47;;;;;;;27.13;13.07;;;2.10;82.70;;;;;;5092283;28;20115;-84
2020/12/10 01:28:13;;;;;;;26.67;13.37;;;2.10;82.90;;;;;;5074132;28;20019;-85
2020/12/10 01:30:38;;;;;;;27.67;13.37;;;2.00;82.90;;;;;;5092024;28;20610;-84
2020/12/10 01:33:04;;;;;;;26.10;12.40;;;2.10;83.00;;;;;;5092016;28;20024;-84
2020/12/10 01:35:30;;;;;;;30.93;14.33;;;2.00;82.90;;;;;;5074068;28;20030;-84
2020/12/10 01:37:55;;;;;;;26.70;12.97;;;2.00;82.70;;;;;;5073536;28;20051;-84
2020/12/10 01:40:21;;;;;;;25.77;13.03;;;2.00;83.00;;;;;;5073681;28;20032;-84
2020/12/10 01:42:46;;;;;;;27.67;14.23;;;2.00;82.90;;;;;;5092076;28;20415;-85
2020/12/10 01:45:12;;;;;;;29.93;14.00;;;2.00;82.90;;;;;;5092405;28;20107;-85
2020/12/10 01:47:38;;;;;;;25.13;12.60;;;2.00;82.90;;;;;;5077114;28;20032;-85
2020/12/10 01:50:04;;;;;;;25.20;12.90;;;2.10;82.90;;;;;;5095695;28;20097;-84
2020/12/10 01:52:30;;;;;;;29.23;13.23;;;2.00;82.90;;;;;;5077303;28;20031;-86
2020/12/10 01:54:56;;;;;;;28.77;13.73;;;2.00;82.80;;;;;;5095166;28;20016;-86
2020/12/10 01:57:22;;;;;;;27.23;13.60;;;2.10;83.00;;;;;;5095486;28;20750;-84
2020/12/10 01:59:49;;;;;;;27.33;13.50;;;2.10;82.70;;;;;;5076950;28;20105;-84
2020/12/10 02:02:15;;;;;;;26.30;13.10;;;2.00;82.90;;;;;;5076614;28;20498;-84
2020/12/10 02:04:41;;;;;;;26.97;13.40;;;2.10;82.90;;;;;;5077550;28;20028;-84
2020/12/10 02:07:06;;;;;;;26.97;13.30;;;2.10;82.70;;;;;;5077151;28;20089;-84
2020/12/10 02:09:33;;;;;;;28.40;13.20;;;2.10;82.60;;;;;;5096252;28;20024;-85
2020/12/10 02:11:59;;;;;;;27.17;13.17;;;2.00;82.80;;;;;;5076900;28;20500;-84
2020/12/10 02:14:40;;;;;;;27.23;12.90;;;2.00;82.90;;;;;;5095107;28;20032;-85
2020/12/10 02:17:07;;;;;;;27.77;13.47;;;2.00;83.10;;;;;;5095151;28;20115;-84
2020/12/10 02:19:33;;;;;;;27.80;13.70;;;2.00;83.40;;;;;;5077556;28;20035;-83
2020/12/10 02:21:59;;;;;;;27.27;13.63;;;2.10;84.00;;;;;;5078108;28;20104;-83
2020/12/10 02:24:25;;;;;;;26.77;13.20;;;2.00;83.40;;;;;;5077860;28;20024;-85
2020/12/10 02:26:51;;;;;;;25.53;12.87;;;2.00;83.20;;;;;;5096396;28;20089;-84
2020/12/10 02:29:17;;;;;;;26.43;12.97;;;2.10;83.20;;;;;;5077241;28;20122;-84
2020/12/10 02:31:43;;;;;;;29.27;13.70;;;2.00;83.40;;;;;;5077744;28;20399;-84
2020/12/10 02:34:09;;;;;;;28.00;13.67;;;2.00;83.40;;;;;;5077659;28;20020;-85
2020/12/10 02:36:35;;;;;;;27.00;12.57;;;2.00;83.20;;;;;;5098839;28;20020;-86
2020/12/10 02:39:03;;;;;;;23.43;12.83;;;2.00;83.10;;;;;;5099861;28;20070;-84
2020/12/10 02:41:29;;;;;;;26.50;12.77;;;2.10;83.00;;;;;;5100659;28;20024;-85
2020/12/10 02:43:55;;;;;;;26.23;13.13;;;2.10;82.90;;;;;;5082551;28;20031;-84
2020/12/10 02:46:20;;;;;;;27.40;13.53;;;2.00;82.50;;;;;;5082595;28;20441;-84
2020/12/10 02:48:46;;;;;;;27.03;13.37;;;2.00;82.60;;;;;;5080724;28;20051;-86
2020/12/10 02:51:12;;;;;;;27.30;13.47;;;2.00;82.80;;;;;;5080473;28;20460;-84
2020/12/10 02:53:39;;;;;;;27.73;13.70;;;1.90;82.60;;;;;;5080615;28;20016;-84
2020/12/10 02:56:15;;;;;;;26.53;13.43;;;1.90;82.80;;;;;;5081744;28;20024;-83
2020/12/10 02:58:42;;;;;;;26.53;12.77;;;1.90;82.80;;;;;;5082255;28;20526;-84
2020/12/10 03:01:09;;;;;;;27.57;13.53;;;1.90;82.80;;;;;;5100584;28;20421;-85
2020/12/10 03:03:36;;;;;;;28.23;12.67;;;1.90;83.30;;;;;;5082057;28;20349;-84
2020/12/10 03:06:06;;;;;;;27.03;13.10;;;1.80;82.80;;;;;;5080127;28;20108;-85
2020/12/10 03:08:32;;;;;;;28.10;13.17;;;1.80;83.00;;;;;;5078893;28;20019;-85
2020/12/10 03:10:59;;;;;;;26.73;12.90;;;1.80;83.20;;;;;;5081620;28;20046;-85
2020/12/10 03:13:24;;;;;;;28.90;13.80;;;1.70;83.30;;;;;;5082236;28;20048;-84
2020/12/10 03:15:50;;;;;;;28.60;13.73;;;1.80;83.30;;;;;;5100989;28;20031;-85
2020/12/10 03:18:16;;;;;;;29.67;13.93;;;1.70;83.30;;;;;;5099555;28;20080;-84
2020/12/10 03:20:41;;;;;;;30.40;13.60;;;1.70;83.10;;;;;;5100572;28;20074;-84
2020/12/10 03:23:07;;;;;;;27.33;13.57;;;1.70;83.30;;;;;;5082202;28;20028;-85
2020/12/10 03:25:32;;;;;;;29.50;13.60;;;1.80;83.20;;;;;;5083350;28;20032;-85
2020/12/10 03:27:58;;;;;;;28.90;14.20;;;1.70;83.40;;;;;;5102397;28;20028;-84
2020/12/10 03:30:24;;;;;;;29.93;14.43;;;1.80;83.10;;;;;;5083697;28;20349;-83
2020/12/10 03:32:50;;;;;;;31.67;14.63;;;1.70;82.90;;;;;;5083835;28;20024;-83
2020/12/10 03:35:16;;;;;;;29.57;13.53;;;1.80;83.00;;;;;;5084243;28;20024;-84
2020/12/10 03:37:42;;;;;;;27.13;13.73;;;1.70;83.00;;;;;;5082711;28;20032;-85
2020/12/10 03:40:07;;;;;;;32.50;14.73;;;1.70;83.40;;;;;;5101339;28;20030;-84
2020/12/10 03:42:33;;;;;;;31.60;14.80;;;1.70;83.50;;;;;;5101731;28;20024;-84
2020/12/10 03:44:59;;;;;;;30.67;14.53;;;1.70;83.40;;;;;;5082250;28;20048;-85
2020/12/10 03:47:25;;;;;;;33.63;14.93;;;1.60;83.60;;;;;;5076234;28;20043;-85
2020/12/10 03:49:50;;;;;;;30.63;14.47;;;1.60;83.50;;;;;;5060067;28;20057;-85
2020/12/10 03:52:17;;;;;;;32.67;14.87;;;1.60;83.80;;;;;;5021567;28;20049;-84
2020/12/10 03:54:43;;;;;;;34.27;15.47;;;1.60;83.60;;;;;;5041513;28;20032;-84
2020/12/10 03:57:09;;;;;;;32.63;15.50;;;1.60;83.30;;;;;;5023073;28;20025;-85
2020/12/10 03:59:34;;;;;;;32.70;15.37;;;1.60;83.80;;;;;;5022933;28;20034;-84
2020/12/10 04:02:00;;;;;;;30.87;14.67;;;1.60;83.70;;;;;;5041825;28;20044;-83
2020/12/10 04:04:25;;;;;;;30.83;14.87;;;1.60;83.60;;;;;;5023639;28;20075;-85
2020/12/10 04:06:51;;;;;;;34.87;15.27;;;1.50;83.40;;;;;;5023195;28;20079;-86
2020/12/10 04:09:17;;;;;;;31.93;14.57;;;1.40;83.80;;;;;;5022355;28;20053;-84
2020/12/10 04:11:42;;;;;;;30.50;14.50;;;1.40;84.00;;;;;;5023170;28;20028;-84
2020/12/10 04:14:08;;;;;;;31.57;14.97;;;1.40;83.90;;;;;;5020370;28;20144;-85
2020/12/10 04:16:34;;;;;;;32.80;14.13;;;1.30;83.90;;;;;;5023931;28;20136;-84
2020/12/10 04:19:00;;;;;;;34.10;15.13;;;1.20;83.90;;;;;;5040632;28;20025;-85
2020/12/10 04:21:26;;;;;;;31.03;14.80;;;1.20;84.00;;;;;;5023829;28;20025;-85
2020/12/10 04:23:52;;;;;;;30.10;13.80;;;1.10;84.30;;;;;;5023104;28;20029;-86
2020/12/10 04:26:17;;;;;;;33.23;16.43;;;1.10;84.50;;;;;;5023678;28;20022;-84
2020/12/10 04:28:44;;;;;;;31.40;14.53;;;1.10;84.60;;;;;;5022572;28;20097;-84
2020/12/10 04:31:10;;;;;;;30.97;14.07;;;1.10;84.60;;;;;;5022752;28;20176;-84
2020/12/10 04:33:37;;;;;;;34.27;15.07;;;1.10;84.60;;;;;;5036209;28;20555;-85
2020/12/10 04:36:04;;;;;;;32.87;14.63;;;1.10;84.60;;;;;;5024161;28;20032;-86
2020/12/10 04:38:30;;;;;;;33.03;15.33;;;1.10;84.40;;;;;;5041774;28;20031;-85
2020/12/10 04:40:59;;;;;;;33.60;15.50;;;1.10;84.60;;;;;;5046734;28;20017;-88
2020/12/10 04:43:27;;;;;;;34.47;14.63;;;1.10;84.50;;;;;;5032333;28;20092;-88
2020/12/10 04:45:58;;;;;;;31.07;14.60;;;1.00;84.30;;;;;;5028252;28;20500;-83
2020/12/10 04:48:29;;;;;;;31.53;14.37;;;1.00;84.60;;;;;;5017341;28;20033;-84
2020/12/10 04:50:57;;;;;;;32.20;14.27;;;1.00;84.30;;;;;;5010779;28;20092;-84
2020/12/10 04:53:27;;;;;;;30.20;14.30;;;0.90;84.80;;;;;;5012583;28;20112;-83
2020/12/10 04:55:55;;;;;;;34.70;15.70;;;0.80;85.10;;;;;;5016015;28;20734;-84
2020/12/10 04:58:21;;;;;;;34.30;15.73;;;0.80;85.50;;;;;;5015281;28;20085;-84
2020/12/10 05:00:47;;;;;;;31.67;14.63;;;0.90;85.80;;;;;;5033653;28;20116;-84
2020/12/10 05:03:15;;;;;;;29.97;14.50;;;0.80;85.20;;;;;;5016021;28;20461;-85
2020/12/10 05:05:40;;;;;;;31.57;14.87;;;0.80;85.50;;;;;;5015654;28;20055;-84
2020/12/10 05:08:06;;;;;;;33.23;14.93;;;0.80;85.20;;;;;;5015389;28;20029;-83
2020/12/10 05:10:45;;;;;;;32.17;14.40;;;0.80;85.10;;;;;;5015240;28;20486;-84
2020/12/10 05:13:13;;;;;;;31.63;14.98;;;0.70;85.20;;;;;;5033233;28;20025;-84
2020/12/10 05:15:40;;;;;;;37.57;15.27;;;0.70;85.30;;;;;;5032565;28;20037;-84
2020/12/10 05:18:11;;;;;;;32.43;14.90;;;0.70;85.10;;;;;;5015353;28;20568;-83
2020/12/10 05:20:47;;;;;;;30.53;13.87;;;0.70;85.60;;;;;;5031633;28;20112;-83
2020/12/10 05:23:27;;;;;;;31.83;14.27;;;0.80;85.40;;;;;;5032275;28;20577;-83
2020/12/10 05:25:53;;;;;;;33.13;14.63;;;0.80;85.10;;;;;;5014604;28;20498;-84
2020/12/10 05:28:21;;;;;;;30.07;14.37;;;0.80;85.00;;;;;;5031646;28;20029;-86
2020/12/10 05:31:02;;;;;;;33.60;15.20;;;0.90;84.70;;;;;;5012900;28;20184;-88
2020/12/10 05:33:28;;;;;;;34.43;14.80;;;0.90;84.00;;;;;;5014170;28;20022;-84
2020/12/10 05:36:10;;;;;;;36.00;15.10;;;0.90;84.60;;;;;;5032181;28;20032;-85
2020/12/10 05:39:00;;;;;;;29.07;14.47;;;0.90;85.00;;;;;;5014225;28;20026;-85
2020/12/10 05:41:27;;;;;;;35.67;15.90;;;0.90;84.40;;;;;;5013530;28;20079;-88
2020/12/10 05:43:54;;;;;;;36.83;16.47;;;0.90;85.40;;;;;;5031338;28;20025;-85
2020/12/10 05:46:22;;;;;;;34.60;15.03;;;0.90;84.90;;;;;;5013204;28;20068;-85
2020/12/10 05:48:49;;;;;;;31.57;14.60;;;0.80;85.10;;;;;;5014620;28;20484;-87
2020/12/10 05:51:20;;;;;;;37.93;16.83;;;0.80;85.00;;;;;;5012927;28;20032;-85
2020/12/10 05:53:47;;;;;;;34.40;14.63;;;0.80;85.10;;;;;;5013478;28;20029;-84
2020/12/10 05:56:15;;;;;;;32.37;14.77;;;0.70;84.70;;;;;;5013527;28;20037;-85
2020/12/10 05:58:50;;;;;;;31.90;14.67;;;0.70;85.00;;;;;;5031588;28;20017;-88
2020/12/10 06:01:33;;;;;;;35.27;15.80;;;0.70;85.30;;;;;;5013152;28;20033;-89
2020/12/10 06:03:59;;;;;;;34.60;16.00;;;0.70;85.30;;;;;;5014004;28;20049;-88
2020/12/10 06:06:28;;;;;;;35.63;16.57;;;0.70;85.70;;;;;;5030721;28;20026;-83
2020/12/10 06:09:00;;;;;;;32.70;15.32;;;0.60;85.60;;;;;;5033322;28;20028;-88
2020/12/10 06:11:27;;;;;;;35.53;15.40;;;0.70;85.70;;;;;;5030751;28;20533;-83
2020/12/10 06:14:08;;;;;;;37.03;15.93;;;0.70;85.30;;;;;;5032939;28;20021;-84
2020/12/10 06:16:35;;;;;;;33.90;15.63;;;0.70;85.10;;;;;;5032899;28;20026;-84
2020/12/10 06:19:02;;;;;;;38.13;16.17;;;0.70;85.00;;;;;;5014985;28;20032;-86
2020/12/10 06:21:54;;;;;;;36.20;16.47;;;0.70;85.00;;;;;;5032202;28;20017;-83
2020/12/10 06:24:26;;;;;;;36.97;16.50;;;0.70;84.90;;;;;;5010987;28;20030;-84
2020/12/10 06:26:55;;;;;;;36.70;15.10;;;0.70;85.00;;;;;;5015593;28;20033;-84
2020/12/10 06:29:28;;;;;;;35.97;15.45;;;0.70;84.50;;;;;;5033575;28;20035;-84
2020/12/10 06:32:13;;;;;;;32.90;15.13;;;0.60;84.90;;;;;;5014330;28;20083;-84
2020/12/10 06:34:44;;;;;;;32.10;14.70;;;0.60;85.50;;;;;;5016691;28;20022;-85
2020/12/10 06:37:29;;;;;;;36.07;15.53;;;0.60;85.30;;;;;;5033574;28;20021;-84
2020/12/10 06:40:04;;;;;;;35.53;16.07;;;0.60;85.00;;;;;;5032238;28;20100;-84
2020/12/10 06:42:46;;;;;;;39.53;16.37;;;0.60;84.90;;;;;;5034161;28;20144;-84
2020/12/10 06:45:25;;;;;;;34.30;15.17;;;0.60;84.90;;;;;;5033820;28;20474;-84
2020/12/10 06:47:54;;;;;;;34.90;15.70;;;0.60;85.40;;;;;;5016254;28;20037;-84
2020/12/10 06:50:25;;;;;;;38.22;17.08;;;0.60;85.30;;;;;;5034425;28;20451;-85
2020/12/10 06:53:10;;;;;;;34.27;15.20;;;0.60;85.10;;;;;;5014842;28;20030;-85
2020/12/10 06:56:02;;;;;;;32.90;14.97;;;0.60;85.10;;;;;;5013504;28;20018;-83
2020/12/10 06:58:50;;;;;;;39.70;15.50;;;0.50;85.10;;;;;;5015173;28;20053;-83
2020/12/10 07:01:37;;;;;;;40.43;15.80;;;0.50;85.10;;;;;;5014291;28;20032;-88
2020/12/10 07:04:37;;;;;;;36.13;15.53;;;0.50;85.20;;;;;;5013686;28;20053;-87
2020/12/10 07:07:25;;;;;;;38.40;16.17;;;0.40;85.40;;;;;;5030076;28;20175;-86
2020/12/10 07:10:01;;;;;;;34.57;16.27;;;0.50;85.40;;;;;;5009928;28;20103;-89
2020/12/10 07:12:29;;;;;;;35.90;16.43;;;0.60;84.90;;;;;;5013697;28;20112;-87
2020/12/10 07:15:23;;;;;;;35.03;15.30;;;0.60;84.40;;;;;;5013703;28;20018;-86
2020/12/10 07:17:52;;;;;;;37.97;16.47;;;0.60;84.40;;;;;;5014089;28;20021;-86
2020/12/10 07:20:19;;;;;;;36.80;15.93;;;0.60;84.50;;;;;;5016162;28;20470;-82
2020/12/10 07:22:45;;;;;;;34.03;15.20;;;0.50;85.30;;;;;;5035348;28;20029;-82
2020/12/10 07:25:10;;;;;;;34.20;14.77;;;0.50;85.50;;;;;;5019542;28;20029;-82
2020/12/10 07:27:36;;;;;;;35.77;16.17;;;0.50;85.70;;;;;;5018104;28;20114;-86
2020/12/10 07:30:09;;;;;;;36.57;16.03;;;0.60;85.30;;;;;;5034830;28;20089;-85
2020/12/10 07:32:35;;;;;;;33.87;14.87;;;0.60;85.20;;;;;;5016989;28;20116;-86
2020/12/10 07:35:00;;;;;;;37.63;15.70;;;0.60;85.10;;;;;;5017165;28;20499;-85
2020/12/10 07:37:31;;;;;;;36.97;15.50;;;0.70;85.30;;;;;;5033563;28;20102;-85
2020/12/10 07:40:54;;;;;;;41.87;17.53;;;0.70;84.90;;;;;;5017909;28;20033;-87
2020/12/10 07:43:20;;;;;;;35.83;15.97;;;0.80;85.10;;;;;;5016159;28;20120;-85
2020/12/10 07:45:49;;;;;;;35.13;15.77;;;0.80;84.80;;;;;;5034305;28;20518;-84
2020/12/10 07:48:15;;;;;;;36.78;16.45;;;0.90;84.50;;;;;;5025498;23;20390;-80
2020/12/10 07:50:46;;;;;;;37.10;15.33;;;0.90;84.30;;;;;;5020176;28;20037;-78
2020/12/10 07:53:11;;;;;;;36.90;17.53;;;0.90;84.10;;;;;;5020387;28;20488;-82
2020/12/10 07:55:57;;;;;;;38.90;16.60;;;0.90;84.20;;;;;;5018220;28;20076;-81
2020/12/10 07:58:59;;;;;;;36.57;16.13;;;0.90;84.40;;;;;;5015639;28;20557;-79
2020/12/10 08:01:25;;;;;;;38.07;16.23;;;0.80;84.20;;;;;;5002824;28;20034;-78
2020/12/10 08:04:12;;;;;;;37.13;16.47;;;0.90;84.50;;;;;;5017096;28;20448;-79
2020/12/10 08:06:39;;;;;;;39.77;16.97;;;0.80;84.40;;;;;;5015519;28;20072;-86
2020/12/10 08:09:07;;;;;;;35.50;15.70;;;0.80;84.80;;;;;;5014458;28;20117;-84
2020/12/10 08:11:33;;;;;;;39.43;16.20;;;0.70;85.50;;;;;;5016155;28;20030;-86
2020/12/10 08:14:08;;;;;;;36.70;16.03;;;0.80;85.40;;;;;;5019499;28;20085;-85
2020/12/10 08:16:45;;;;;;;38.10;17.30;;;0.70;84.80;;;;;;5016736;28;20101;-82
2020/12/10 08:19:19;;;;;;;37.63;16.90;;;0.70;85.50;;;;;;5018154;28;20414;-81
2020/12/10 08:21:46;;;;;;;36.17;15.63;;;0.70;85.50;;;;;;5016772;28;20113;-81
2020/12/10 08:24:13;;;;;;;42.30;17.03;;;0.80;85.70;;;;;;5014664;28;20022;-85
2020/12/10 08:26:42;;;;;;;34.83;16.17;;;0.80;85.30;;;;;;5012697;28;20032;-80
2020/12/10 08:29:14;;;;;;;38.58;17.23;;;0.80;85.20;;;;;;5016699;28;20435;-79
2020/12/10 08:31:40;;;;;;;37.00;16.13;;;0.90;85.10;;;;;;5015815;28;20030;-79
2020/12/10 08:34:16;;;;;;;38.30;16.73;;;0.90;84.60;;;;;;5016057;28;20313;-80
2020/12/10 08:36:43;;;;;;;38.03;15.73;;;0.90;84.60;;;;;;5016785;28;20029;-81
2020/12/10 08:39:08;;;;;;;38.03;16.37;;;1.00;84.10;;;;;;5016045;28;20037;-79
2020/12/10 08:41:36;;;;;;;39.07;17.60;;;0.90;85.00;;;;;;5017912;28;20026;-80
2020/12/10 08:44:07;;;;;;;41.13;17.20;;;0.80;84.70;;;;;;5015966;28;20102;-77
2020/12/10 08:46:35;;;;;;;35.67;16.10;;;0.90;84.60;;;;;;5014945;28;20411;-78
2020/12/10 08:49:20;;;;;;;41.07;16.90;;;0.90;85.50;;;;;;5013785;28;20022;-81
2020/12/10 08:51:48;;;;;;;36.53;16.70;;;0.90;85.20;;;;;;5013492;28;20034;-85
2020/12/10 08:54:16;;;;;;;36.73;17.00;;;1.00;84.80;;;;;;5015281;28;20034;-85
2020/12/10 08:59:18;;;;;;;39.27;17.47;;;0.90;85.30;;;;;;1367036;26;20040;-78
2020/12/10 09:01:53;;;;;;;37.90;16.50;;;0.90;85.60;;;;;;5034818;28;20061;-81
2020/12/10 09:04:18;;;;;;;38.30;16.87;;;0.90;85.80;;;;;;5036230;28;20033;-80
2020/12/10 09:06:44;;;;;;;39.73;17.70;;;0.90;85.60;;;;;;5034581;28;20022;-82
2020/12/10 09:09:10;;;;;;;37.97;16.67;;;1.00;85.90;;;;;;5034389;28;20017;-84
2020/12/10 09:11:36;;;;;;;35.13;16.53;;;1.10;85.50;;;;;;5035569;28;20029;-82
2020/12/10 09:14:01;;;;;;;42.07;17.67;;;1.10;85.00;;;;;;5021828;28;20047;-81
2020/12/10 09:16:28;;;;;;;43.57;18.13;;;1.20;85.20;;;;;;5037122;28;20107;-80
2020/12/10 09:18:54;;;;;;;42.47;18.17;;;1.20;85.10;;;;;;5018876;28;20029;-80
2020/12/10 09:21:20;;;;;;;38.50;17.70;;;1.30;84.60;;;;;;5036213;28;20025;-80
2020/12/10 09:23:46;;;;;;;38.23;17.57;;;1.30;84.90;;;;;;5036487;28;20079;-83
2020/12/10 09:26:15;;;;;;;38.57;17.77;;;1.30;84.60;;;;;;5038964;28;20036;-83
2020/12/10 09:28:41;;;;;;;37.35;16.98;;;1.20;85.30;;;;;;5039038;28;20025;-84
2020/12/10 09:31:08;;;;;;;41.43;18.00;;;1.20;85.50;;;;;;5017085;28;20060;-81
2020/12/10 09:33:34;;;;;;;40.00;18.40;;;1.30;86.00;;;;;;5019606;28;20103;-83
2020/12/10 09:36:00;;;;;;;39.27;17.40;;;1.40;85.30;;;;;;5037889;28;20045;-83
2020/12/10 09:38:26;;;;;;;38.33;17.37;;;1.50;84.90;;;;;;5034823;28;20064;-79
2020/12/10 09:40:52;;;;;;;37.10;17.17;;;1.50;84.40;;;;;;5038461;28;20029;-82
2020/12/10 09:43:17;;;;;;;37.10;17.80;;;1.60;84.00;;;;;;5036597;28;20417;-85
2020/12/10 09:45:47;;;;;;;40.30;17.60;;;1.60;83.70;;;;;;5019356;28;20052;-81
2020/12/10 09:48:13;;;;;;;37.67;17.70;;;1.60;84.00;;;;;;5018839;28;20029;-82
2020/12/10 09:50:39;;;;;;;36.90;18.47;;;1.60;84.30;;;;;;5037360;28;20035;-84
2020/12/10 09:58:21;;;;;;;39.67;17.67;;;1.70;84.20;;;;;;5033997;28;20025;-81
2020/12/10 10:00:50;;;;;;;37.23;17.63;;;1.80;84.00;;;;;;5030509;28;20090;-82
2020/12/10 10:03:20;;;;;;;39.73;18.03;;;1.80;84.40;;;;;;5031095;28;20118;-79
2020/12/10 10:05:46;;;;;;;37.87;17.93;;;1.90;84.30;;;;;;5031301;28;20105;-79
2020/12/10 10:08:12;;;;;;;37.20;17.27;;;1.90;84.00;;;;;;5030488;28;20501;-79
2020/12/10 10:10:38;;;;;;;38.73;18.03;;;1.90;84.10;;;;;;5031117;28;20108;-81
2020/12/10 10:13:04;;;;;;;37.00;17.40;;;1.90;83.60;;;;;;5031221;28;20048;-79
2020/12/10 10:15:30;;;;;;;33.93;16.27;;;1.90;83.50;;;;;;5032183;28;20104;-79
2020/12/10 10:17:56;;;;;;;43.63;17.37;;;1.90;83.50;;;;;;5013292;28;20017;-79
2020/12/10 10:20:22;;;;;;;38.97;17.10;;;2.00;84.10;;;;;;5031944;28;20087;-79
2020/12/10 10:22:47;;;;;;;47.90;20.80;;;2.00;84.10;;;;;;5033470;28;20120;-79
2020/12/10 10:25:13;;;;;;;35.87;17.37;;;2.00;83.70;;;;;;5035848;28;20537;-79
2020/12/10 10:27:39;;;;;;;37.77;17.20;;;2.00;83.90;;;;;;5034019;28;20434;-79
2020/12/10 10:30:06;;;;;;;36.40;17.80;;;2.10;83.80;;;;;;5034649;28;20037;-78
2020/12/10 10:32:32;;;;;;;39.77;17.40;;;2.10;83.70;;;;;;5036111;28;20036;-78
2020/12/10 10:34:58;;;;;;;34.77;17.17;;;2.10;83.60;;;;;;5020096;28;20029;-78
2020/12/10 10:37:24;;;;;;;38.80;17.57;;;2.10;83.40;;;;;;5020126;28;20025;-80
2020/12/10 10:39:49;;;;;;;37.53;17.00;;;2.10;83.40;;;;;;5036585;28;20034;-79
2020/12/10 10:42:15;;;;;;;33.53;17.03;;;2.10;83.30;;;;;;5042956;28;20034;-80
2020/12/10 10:44:41;;;;;;;38.53;18.30;;;2.20;83.30;;;;;;5019760;28;20509;-79
2020/12/10 10:47:07;;;;;;;39.00;17.77;;;2.20;83.30;;;;;;5034996;28;20017;-79
2020/12/10 10:49:32;;;;;;;36.57;17.17;;;2.20;83.40;;;;;;5032129;28;20037;-81
2020/12/10 10:51:58;;;;;;;36.07;18.30;;;2.20;83.10;;;;;;5031236;28;20021;-79
2020/12/10 10:54:24;;;;;;;36.57;16.87;;;2.20;83.20;;;;;;5031686;28;20355;-78
2020/12/10 10:56:49;;;;;;;36.57;17.57;;;2.20;83.20;;;;;;5032293;28;20091;-81
2020/12/10 10:59:15;;;;;;;34.33;16.70;;;2.30;83.50;;;;;;5034766;28;20112;-80
2020/12/10 11:01:41;;;;;;;35.77;17.20;;;2.30;83.40;;;;;;5036164;28;20021;-83
2020/12/10 11:04:06;;;;;;;35.90;17.50;;;2.40;83.30;;;;;;5037415;28;20021;-84
2020/12/10 11:06:32;;;;;;;36.97;16.57;;;2.40;83.30;;;;;;5036849;28;20026;-84
2020/12/10 11:08:58;;;;;;;37.23;17.13;;;2.40;83.10;;;;;;5018000;28;20419;-85
2020/12/10 11:11:24;;;;;;;32.47;16.13;;;2.50;83.10;;;;;;5035502;28;20082;-84
2020/12/10 11:13:50;;;;;;;32.73;16.47;;;2.50;83.00;;;;;;5019471;28;20025;-83
2020/12/10 11:16:16;;;;;;;36.00;17.00;;;2.50;83.10;;;;;;5036144;28;20018;-86
2020/12/10 11:18:43;;;;;;;32.23;16.50;;;2.60;83.30;;;;;;4999306;28;20033;-87
2020/12/10 11:21:09;;;;;;;36.37;17.40;;;2.60;83.20;;;;;;4995181;28;20061;-85
2020/12/10 11:23:35;;;;;;;35.43;17.70;;;2.60;83.60;;;;;;5015563;28;20104;-86
2020/12/10 11:26:01;;;;;;;34.77;17.30;;;2.60;83.50;;;;;;5002197;28;20116;-83
2020/12/10 11:28:28;;;;;;;34.77;16.80;;;2.60;83.00;;;;;;5021246;28;20029;-83
2020/12/10 11:30:54;;;;;;;31.87;15.87;;;2.60;83.20;;;;;;5019550;28;20472;-83
2020/12/10 11:33:20;;;;;;;32.90;16.20;;;2.70;83.30;;;;;;5019026;28;20022;-83
2020/12/10 11:35:46;;;;;;;36.23;16.70;;;2.70;83.30;;;;;;5020491;28;20017;-83
2020/12/10 11:38:11;;;;;;;37.03;17.27;;;2.70;83.20;;;;;;5002050;28;20022;-84
2020/12/10 11:40:37;;;;;;;36.50;16.60;;;2.70;83.30;;;;;;5019873;28;20038;-82
2020/12/10 11:43:03;;;;;;;35.80;17.13;;;2.80;83.30;;;;;;5003587;28;20025;-83
2020/12/10 11:45:29;;;;;;;36.07;16.70;;;2.70;83.20;;;;;;5006396;28;20124;-83
2020/12/10 11:47:55;;;;;;;30.10;15.67;;;2.80;83.10;;;;;;5023848;28;20026;-84
2020/12/10 11:50:21;;;;;;;29.70;16.13;;;2.80;83.30;;;;;;5002603;28;20088;-84
2020/12/10 11:52:51;;;;;;;31.73;16.37;;;2.80;83.00;;;;;;5017719;28;20026;-83
2020/12/10 11:55:18;;;;;;;32.13;16.60;;;2.80;83.30;;;;;;5003180;28;20026;-83
2020/12/10 11:57:44;;;;;;;35.87;16.73;;;2.90;83.20;;;;;;5018968;28;20060;-84
2020/12/10 12:00:11;;;;;;;31.73;16.03;;;2.90;83.10;;;;;;5019269;28;20061;-84
2020/12/10 12:02:38;;;;;;;32.30;15.50;;;2.90;83.70;;;;;;5009777;28;20021;-84
2020/12/10 12:05:05;;;;;;;32.40;15.87;;;2.90;82.90;;;;;;5022790;28;20116;-83
2020/12/10 12:07:31;;;;;;;30.23;15.40;;;2.90;83.00;;;;;;5039123;28;20021;-83
2020/12/10 12:09:56;;;;;;;30.53;15.13;;;3.00;83.30;;;;;;5040813;28;20056;-83
2020/12/10 12:12:22;;;;;;;30.93;15.17;;;3.00;83.00;;;;;;5040457;28;20029;-83
2020/12/10 12:14:47;;;;;;;29.80;14.07;;;3.00;83.10;;;;;;5021886;28;20466;-86
2020/12/10 12:17:13;;;;;;;30.10;14.70;;;3.00;82.80;;;;;;5020912;28;20045;-86
2020/12/10 12:19:39;;;;;;;27.07;13.37;;;3.10;82.60;;;;;;5021636;28;20028;-83
2020/12/10 12:22:04;;;;;;;28.17;13.53;;;3.10;82.70;;;;;;5035797;28;20032;-83
2020/12/10 12:24:30;;;;;;;30.50;15.07;;;3.10;83.40;;;;;;5040348;28;20056;-84
2020/12/10 12:26:56;;;;;;;26.17;13.97;;;3.10;83.50;;;;;;5023269;28;20079;-83
2020/12/10 12:29:21;;;;;;;27.13;14.27;;;3.10;83.10;;;;;;5041107;28;20025;-87
2020/12/10 12:31:47;;;;;;;33.93;14.57;;;3.20;82.80;;;;;;5042217;28;20443;-83
2020/12/10 12:34:12;;;;;;;25.17;13.30;;;3.10;82.70;;;;;;5060874;28;20029;-84
2020/12/10 12:36:38;;;;;;;27.17;13.77;;;3.20;82.70;;;;;;5059694;28;20112;-82
2020/12/10 12:39:05;;;;;;;29.10;13.77;;;3.20;82.80;;;;;;5043075;28;20021;-83
2020/12/10 12:41:32;;;;;;;29.17;15.00;;;3.20;83.00;;;;;;5061082;28;20029;-84
2020/12/10 12:43:58;;;;;;;23.97;13.10;;;3.20;83.00;;;;;;5043443;28;20040;-82
2020/12/10 12:46:24;;;;;;;25.87;13.40;;;3.20;83.00;;;;;;5061304;28;20032;-83
2020/12/10 12:48:51;;;;;;;24.37;12.40;;;3.20;83.20;;;;;;5060612;28;20043;-83